Terminal Aerodrome Forecast
Issued by NWS

Home | Current Version | Previous Version | Text Only | Print | Product List | Glossary On
Versions: 1 2 3 4 5 6 7 8 9 10 11 12 13 14 15 16 17 18 19 20 21 22 23 24 25 26 27 28 29 30 31 32 33 34 35
993
FTUS45 KBOU 220906 AAB
TAFBJC
TAF AMD
KBJC 220906Z 2209/2306 11005KT P6SM BKN018 OVC030
      TEMPO 2210/2212 -SHRA BKN015
     FM221200 10007KT 5SM -SHRA BR SCT012 OVC025
      TEMPO 2212/2213 3SM -RA BR BKN012
     FM221300 13010KT 3SM -RA BKN009 OVC020
     FM221500 VRB05KT P6SM VCSH SCT020 BKN040 BKN080
     FM222100 08008KT P6SM VCSH SCT015 BKN030 OVC050
      TEMPO 2222/2302 4SM -TSRA BKN015CB
     FM230200 03008KT P6SM VCTS SCT015CB OVC030 PROB30 2302/2306 4SM
      -SHRA SCT008 BKN015=

USA.gov is the U.S. government's official web portal to all federal, state and local government web resources and services.